< < Back
Terminal Aerodrome Forecast


Current Version              Previous Versions:   1  2  3  4  5  6  7  8  9  

Terminal Aerodrome Forecast

999
FTUS42 KFFC 271001 AAA
TAFFTY
TAF AMD
KFTY 271001Z 2710/2806 VRB03KT P6SM SCT070 BKN250
     FM271500 21005KT P6SM SCT035
     FM271800 22007KT P6SM VCSH SCT050 PROB30 2719/2724 5SM -TSRA
      BKN035CB
     FM280100 30003KT P6SM SCT070 BKN150=



Latest METAR

250
SAUS70 KWBC 271400 RRB
MTRFTY
METAR KFTY 271353Z 21004KT 10SM CLR 26/21 A3012 RMK AO2 SLP190
T02610206


USA.gov is the U.S. government's official web portal to all federal, state and local government web resources and services.